Time;durP1;ratioP1;P1;durP2;ratioP2;P2;SDS_P1;SDS_P2;PMS_P1;PMS_P2;Temp;Humidity;BMP_temperature;BMP_pressure;BME280_temperature;BME280_humidity;BME280_pressure;Samples;Min_cycle;Max_cycle;Signal;HPM_P1;HPM_P2
2021/11/30 00:01:31;;;;;;;20.35;15.45;;;3.90;99.90;;;3.35;100.00;101896.75;4152956;28;20041;-73
2021/11/30 00:03:35;;;;;;;19.60;15.00;;;3.90;99.90;;;3.37;100.00;101898.44;4152643;28;20050;-73
2021/11/30 00:05:36;;;;;;;18.67;12.75;;;3.80;99.90;;;3.35;100.00;101894.13;4153831;28;20033;-73
2021/11/30 00:07:37;;;;;;;21.02;16.92;;;3.80;99.90;;;3.49;100.00;101903.00;4149668;28;20029;-73
2021/11/30 00:11:38;;;;;;;28.30;19.83;;;3.80;99.90;;;3.33;100.00;101903.81;4148650;28;20022;-73
2021/11/30 00:13:41;;;;;;;42.65;24.40;;;3.80;99.90;;;3.24;100.00;101893.88;4152510;28;20405;-73
2021/11/30 00:15:44;;;;;;;46.03;28.83;;;3.80;99.90;;;3.50;100.00;101895.06;4169002;28;20025;-73
2021/11/30 00:17:44;;;;;;;37.75;24.13;;;3.80;99.90;;;3.44;100.00;101898.00;4152543;28;20057;-73
2021/11/30 00:19:48;;;;;;;29.45;20.15;;;3.80;99.90;;;3.48;100.00;101903.91;4152651;28;20022;-73
2021/11/30 00:21:49;;;;;;;21.65;17.13;;;3.80;99.90;;;3.43;100.00;101903.31;4168824;28;20432;-73
2021/11/30 00:23:50;;;;;;;22.17;16.25;;;3.80;99.90;;;3.33;100.00;101901.22;4153599;28;20030;-73
2021/11/30 00:25:51;;;;;;;22.45;16.92;;;3.80;99.90;;;3.28;100.00;101890.19;4185447;28;20029;-73
2021/11/30 00:27:52;;;;;;;20.63;14.73;;;3.90;99.90;;;3.29;100.00;101881.41;4153684;28;20022;-73
2021/11/30 00:29:53;;;;;;;20.02;16.23;;;3.80;99.90;;;3.66;100.00;101882.91;4153034;28;20049;-73
2021/11/30 00:31:54;;;;;;;22.30;16.02;;;3.80;99.90;;;3.66;100.00;101890.72;4165342;28;20049;-73
2021/11/30 00:33:55;;;;;;;19.25;15.40;;;3.70;99.90;;;3.60;100.00;101878.00;4159183;28;20025;-73
2021/11/30 00:35:56;;;;;;;19.60;15.35;;;3.90;99.90;;;3.59;100.00;101875.47;4152445;28;20114;-73
2021/11/30 00:37:58;;;;;;;21.38;16.60;;;4.00;99.90;;;3.59;100.00;101885.91;4152235;28;20034;-73
2021/11/30 00:39:59;;;;;;;21.83;17.52;;;4.00;99.90;;;3.70;100.00;101889.59;4152417;28;20464;-73
2021/11/30 00:42:01;;;;;;;23.80;17.35;;;4.00;99.90;;;3.69;100.00;101900.16;4153602;28;20061;-73
2021/11/30 00:44:03;;;;;;;21.40;17.35;;;4.00;99.90;;;3.73;100.00;101899.88;4152263;28;20030;-73
2021/11/30 00:46:48;;;;;;;23.60;17.52;;;4.10;99.90;;;3.72;100.00;101899.97;4152189;28;20041;-73
2021/11/30 00:48:31;;;;;;;20.10;16.35;;;4.10;99.90;;;3.63;100.00;101885.66;4157743;28;20516;-73
2021/11/30 00:50:32;;;;;;;22.88;17.45;;;4.10;99.90;;;3.78;100.00;101895.28;4153289;28;20036;-73
2021/11/30 00:52:33;;;;;;;20.13;16.75;;;4.10;99.90;;;3.80;100.00;101887.34;4151978;28;20073;-73
2021/11/30 00:54:34;;;;;;;23.17;17.40;;;4.10;99.90;;;3.71;100.00;101886.09;4168395;28;20036;-73
2021/11/30 00:56:40;;;;;;;24.35;18.10;;;4.10;99.90;;;3.74;100.00;101890.28;4152219;28;20567;-73
2021/11/30 00:58:41;;;;;;;22.48;17.25;;;4.10;99.90;;;3.55;100.00;101871.38;4152104;28;20033;-73
2021/11/30 01:00:43;;;;;;;21.73;17.00;;;4.10;99.90;;;3.50;100.00;101889.00;4153153;28;20022;-73
2021/11/30 01:02:45;;;;;;;23.58;17.83;;;4.00;99.90;;;3.49;100.00;101879.53;4152988;28;20046;-73
2021/11/30 01:04:47;;;;;;;22.33;17.63;;;4.10;99.90;;;3.68;100.00;101890.63;4153202;28;20101;-73
2021/11/30 01:06:49;;;;;;;24.42;17.70;;;4.00;99.90;;;3.89;100.00;101892.06;4153153;28;20033;-73
2021/11/30 01:08:50;;;;;;;22.55;17.83;;;4.10;99.90;;;3.80;100.00;101896.00;4139601;28;20033;-73
2021/11/30 01:10:51;;;;;;;22.27;16.65;;;4.20;99.90;;;3.76;100.00;101896.28;4151947;28;20117;-73
2021/11/30 01:12:53;;;;;;;23.83;17.08;;;4.20;99.90;;;3.90;100.00;101886.75;4168290;28;20049;-73
2021/11/30 01:14:54;;;;;;;21.23;16.52;;;4.30;99.90;;;3.96;100.00;101882.13;4135552;28;20038;-73
2021/11/30 01:16:55;;;;;;;21.88;17.00;;;4.40;99.90;;;3.94;100.00;101892.66;4152918;28;20116;-73
2021/11/30 01:18:56;;;;;;;25.40;18.90;;;4.50;99.90;;;3.98;100.00;101899.38;4151914;28;20037;-73
2021/11/30 01:20:57;;;;;;;23.95;18.90;;;4.50;99.90;;;4.01;100.00;101893.13;4151863;28;20034;-73
2021/11/30 01:22:58;;;;;;;21.15;16.58;;;4.40;99.90;;;4.21;100.00;101898.91;4151429;28;20025;-73
2021/11/30 01:24:59;;;;;;;21.92;16.15;;;4.40;99.90;;;4.13;100.00;101900.28;4152700;28;20117;-73
2021/11/30 01:27:00;;;;;;;23.23;18.50;;;4.50;99.90;;;3.98;100.00;101899.38;4152885;28;20412;-73
2021/11/30 01:29:03;;;;;;;21.13;17.15;;;4.50;99.90;;;4.10;100.00;101905.66;4151547;28;20045;-73
2021/11/30 01:31:04;;;;;;;23.67;17.60;;;4.40;99.90;;;4.13;100.00;101895.06;4151553;28;20417;-73
2021/11/30 01:33:07;;;;;;;21.40;16.38;;;4.50;99.90;;;4.25;100.00;101902.19;4149171;28;20033;-73
2021/11/30 01:35:09;;;;;;;18.85;16.13;;;4.60;99.90;;;4.21;100.00;101911.97;4151696;28;20038;-73
2021/11/30 01:37:15;;;;;;;19.40;16.80;;;4.70;99.90;;;4.18;100.00;101899.09;4151229;28;20025;-73
2021/11/30 01:39:17;;;;;;;20.80;16.20;;;4.60;99.90;;;4.41;100.00;101908.25;4152753;28;20034;-73
2021/11/30 01:41:18;;;;;;;20.83;17.58;;;4.80;99.90;;;4.29;100.00;101911.56;4150901;28;20544;-73
2021/11/30 01:43:23;;;;;;;23.55;18.15;;;4.90;99.90;;;4.28;100.00;101904.63;4167378;28;20030;-74
2021/11/30 01:50:11;;;;;;;20.23;16.17;;;4.90;99.90;;;4.54;100.00;101917.03;4141019;28;20034;-73
2021/11/30 01:52:13;;;;;;;22.63;16.63;;;5.50;99.90;;;4.49;100.00;101913.84;4151014;28;20060;-73
2021/11/30 01:54:14;;;;;;;23.23;16.85;;;5.00;99.90;;;4.50;100.00;101912.09;4152383;28;20022;-73
2021/11/30 01:56:16;;;;;;;17.73;15.00;;;5.00;99.90;;;4.57;100.00;101911.63;4152537;28;20408;-73
2021/11/30 01:58:17;;;;;;;20.95;15.52;;;5.10;99.90;;;4.71;100.00;101903.00;4151453;28;20432;-73
2021/11/30 02:00:22;;;;;;;17.65;15.15;;;5.10;99.90;;;4.72;100.00;101889.03;4167504;28;20112;-74
2021/11/30 02:02:23;;;;;;;;;;;5.20;99.90;;;4.59;100.00;101895.88;4152502;28;20069;-73
2021/11/30 02:04:24;;;;;;;19.65;15.38;;;5.20;99.90;;;4.65;100.00;101900.75;4151332;28;19917;-73
2021/11/30 02:06:25;;;;;;;21.92;16.15;;;5.20;99.90;;;4.80;100.00;101899.84;4152268;28;20058;-73
2021/11/30 02:08:26;;;;;;;20.90;15.50;;;5.30;99.90;;;4.76;100.00;101906.19;4150848;28;20537;-73
2021/11/30 02:10:28;;;;;;;20.63;15.52;;;5.30;99.90;;;4.71;100.00;101895.16;4151024;28;20546;-73
2021/11/30 02:12:29;;;;;;;18.30;16.33;;;5.30;99.90;;;4.64;100.00;101896.44;4151221;28;20133;-73
2021/11/30 02:14:31;;;;;;;18.67;15.10;;;5.30;99.90;;;4.78;100.00;101901.72;4151166;28;20505;-73
2021/11/30 02:16:32;;;;;;;18.40;14.73;;;5.30;99.90;;;4.96;100.00;101895.38;4167435;28;20052;-73
2021/11/30 02:18:39;;;;;;;19.02;15.10;;;5.40;99.90;;;4.91;100.00;101889.59;4150839;28;20029;-73
2021/11/30 02:20:45;;;;;;;18.10;15.10;;;5.40;99.90;;;4.84;100.00;101893.50;4152274;28;20099;-73
2021/11/30 02:22:53;;;;;;;19.98;16.17;;;5.50;99.90;;;4.74;100.00;101876.69;4150430;28;20026;-73
2021/11/30 02:24:55;;;;;;;20.73;14.88;;;5.70;99.90;;;5.06;100.00;101893.91;4148983;28;20030;-73
2021/11/30 02:26:56;;;;;;;20.05;15.15;;;5.50;99.90;;;5.03;100.00;101883.63;4152222;28;20441;-73
2021/11/30 02:28:57;;;;;;;20.17;16.00;;;5.60;99.90;;;5.09;100.00;101885.88;4183717;28;20028;-73
2021/11/30 02:30:59;;;;;;;18.17;13.88;;;5.50;99.90;;;5.08;100.00;101875.50;4167062;28;20433;-73
2021/11/30 02:32:59;;;;;;;17.85;14.55;;;5.50;99.90;;;5.08;100.00;101886.78;4152066;28;20026;-73
2021/11/30 02:35:01;;;;;;;17.73;14.20;;;5.60;99.90;;;4.87;100.00;101875.00;4167288;28;20040;-73
2021/11/30 02:37:06;;;;;;;18.67;14.73;;;5.60;99.90;;;4.98;100.00;101870.00;4142116;28;20382;-73
2021/11/30 02:39:10;;;;;;;16.17;14.30;;;5.80;99.90;;;5.06;100.00;101878.22;4182756;28;20029;-73
2021/11/30 02:41:11;;;;;;;12.48;11.10;;;5.50;99.90;;;5.13;100.00;101869.06;4183379;28;20033;-73
2021/11/30 02:43:12;;;;;;;16.38;14.15;;;5.60;99.90;;;5.09;100.00;101867.56;4183784;28;20036;-73
2021/11/30 02:45:13;;;;;;;16.08;13.90;;;5.60;99.90;;;5.03;100.00;101867.94;4152005;28;20022;-73
2021/11/30 02:47:15;;;;;;;17.15;14.48;;;5.60;99.90;;;4.94;100.00;101853.66;4151991;28;20065;-73
2021/11/30 02:49:19;;;;;;;16.52;13.90;;;5.60;99.90;;;5.05;100.00;101850.38;4183455;28;20017;-73
2021/11/30 02:51:20;;;;;;;;;;;5.60;99.90;;;5.11;100.00;101849.19;4183974;28;20029;-73
2021/11/30 02:53:22;;;;;;;16.13;13.93;;;5.60;99.90;;;4.96;100.00;101845.69;4152781;28;19909;-73
2021/11/30 02:55:23;;;;;;;18.52;14.52;;;5.60;99.90;;;5.04;100.00;101859.16;4153897;28;20018;-73
2021/11/30 02:57:25;;;;;;;17.58;12.95;;;5.50;99.90;;;4.88;100.00;101846.19;4155021;28;20485;-73
2021/11/30 02:59:32;;;;;;;16.85;13.75;;;5.50;99.90;;;4.94;100.00;101847.56;4155161;28;20508;-73
2021/11/30 03:01:33;;;;;;;15.70;14.00;;;5.50;99.90;;;4.96;100.00;101840.47;4155043;28;20110;-73
2021/11/30 03:03:34;;;;;;;16.88;14.15;;;5.40;99.90;;;4.73;100.00;101844.47;4186700;28;20389;-73
2021/11/30 03:05:35;;;;;;;17.65;13.93;;;5.40;99.90;;;4.63;100.00;101845.94;4186535;28;20032;-73
2021/11/30 03:07:39;;;;;;;18.02;14.15;;;5.30;99.90;;;4.62;100.00;101849.50;4182364;28;20028;-73
2021/11/30 03:09:41;;;;;;;19.80;14.55;;;5.30;99.90;;;4.69;100.00;101839.53;4145010;28;20020;-73
2021/11/30 03:11:42;;;;;;;16.75;13.88;;;5.40;99.90;;;4.61;100.00;101845.22;4154868;28;20440;-73
2021/11/30 03:13:43;;;;;;;15.52;13.43;;;5.30;99.90;;;4.59;100.00;101841.00;4153522;28;20146;-73
2021/11/30 03:15:44;;;;;;;17.60;13.73;;;5.30;99.90;;;4.58;100.00;101845.38;4154862;28;20034;-73
2021/11/30 03:17:46;;;;;;;17.67;13.38;;;5.20;99.90;;;4.62;100.00;101846.91;4153569;28;20021;-73
2021/11/30 03:19:47;;;;;;;15.18;12.93;;;5.30;99.90;;;4.73;100.00;101851.47;4169928;28;20033;-73
2021/11/30 03:21:48;;;;;;;18.33;13.07;;;5.20;99.90;;;4.75;100.00;101840.00;4154532;28;20033;-73
2021/11/30 03:23:49;;;;;;;17.67;14.05;;;5.30;99.90;;;4.59;100.00;101851.47;4186657;28;20041;-73
2021/11/30 03:25:50;;;;;;;15.23;13.38;;;5.30;99.90;;;4.62;100.00;101849.50;4162605;28;20028;-73
2021/11/30 03:27:51;;;;;;;18.05;12.90;;;5.20;99.90;;;4.72;100.00;101850.63;4163619;28;20104;-73
2021/11/30 03:29:53;;;;;;;15.00;12.75;;;5.30;99.90;;;4.74;100.00;101856.63;4153477;28;20022;-73
2021/11/30 03:32:08;;;;;;;15.55;12.90;;;5.30;99.90;;;4.56;100.00;101851.63;4153274;28;20022;-73
2021/11/30 03:34:20;;;;;;;15.48;12.75;;;5.30;99.90;;;4.46;100.00;101857.41;4154543;28;20093;-73
2021/11/30 03:36:21;;;;;;;14.05;10.63;;;5.30;99.90;;;4.73;100.00;101854.09;4154379;28;20125;-73
2021/11/30 03:38:22;;;;;;;14.63;11.57;;;5.30;99.90;;;4.79;100.00;101848.50;4153085;28;20135;-74
2021/11/30 03:40:23;;;;;;;13.35;11.15;;;5.40;99.90;;;4.87;100.00;101854.09;4153297;28;20076;-73
2021/11/30 03:42:25;;;;;;;12.05;10.60;;;5.50;99.90;;;5.02;100.00;101847.94;4153186;28;20082;-73
2021/11/30 03:44:28;;;;;;;13.52;10.38;;;4.20;99.90;;;5.08;100.00;101850.19;4153147;28;20113;-73
2021/11/30 03:46:31;;;;;;;13.70;10.50;;;6.20;99.90;;;4.97;100.00;101847.38;4169578;28;20112;-73
2021/11/30 03:48:32;;;;;;;13.00;10.05;;;5.70;99.90;;;4.91;100.00;101853.84;4153187;28;20025;-73
2021/11/30 03:50:33;;;;;;;12.00;10.65;;;5.60;99.90;;;5.01;100.00;101860.19;4153093;28;20037;-73
2021/11/30 03:52:34;;;;;;;11.60;10.40;;;5.70;99.90;;;4.98;100.00;101849.94;4169215;28;20021;-73
2021/11/30 03:54:36;;;;;;;10.95;9.05;;;5.70;99.90;;;5.07;100.00;101848.53;4153019;28;20529;-73
2021/11/30 03:56:39;;;;;;;14.57;10.35;;;5.70;99.90;;;5.12;100.00;101848.22;4169377;28;20057;-73
2021/11/30 03:58:40;;;;;;;15.60;9.98;;;5.80;99.90;;;5.11;100.00;101844.75;4152831;28;20030;-73
2021/11/30 04:00:41;;;;;;;15.40;9.38;;;5.80;99.90;;;5.18;100.00;101860.94;4154096;28;20112;-73
2021/11/30 04:02:42;;;;;;;13.65;9.48;;;5.80;99.90;;;5.27;100.00;101863.81;4152786;28;20048;-73
2021/11/30 04:04:45;;;;;;;10.63;9.05;;;5.80;99.90;;;5.17;100.00;101847.00;4153102;28;20038;-73
2021/11/30 04:06:49;;;;;;;13.85;10.02;;;5.90;99.90;;;5.17;100.00;101847.00;4152935;28;20125;-73
2021/11/30 04:08:51;;;;;;;9.68;7.93;;;5.90;99.90;;;5.36;100.00;101849.31;4152668;28;20448;-73
2021/11/30 04:10:52;;;;;;;10.70;8.45;;;5.90;99.90;;;5.33;100.00;101858.22;4141064;28;20076;-73
2021/11/30 04:12:54;;;;;;;10.32;7.90;;;6.00;99.90;;;5.38;100.00;101853.53;4177989;28;20583;-73
2021/11/30 04:14:55;;;;;;;10.15;6.93;;;6.00;99.90;;;5.37;100.00;101846.63;4147367;28;20057;-73
2021/11/30 04:16:56;;;;;;;11.68;8.65;;;6.00;99.90;;;5.52;100.00;101857.91;4153792;28;20069;-73
2021/11/30 04:18:58;;;;;;;11.77;7.75;;;6.10;99.90;;;5.52;100.00;101850.06;4152775;28;20488;-74
2021/11/30 04:20:59;;;;;;;10.27;8.65;;;6.30;99.90;;;5.45;100.00;101859.22;4152595;28;20022;-73
2021/11/30 04:23:00;;;;;;;11.43;9.35;;;6.10;99.90;;;5.44;100.00;101863.59;4152301;28;20025;-73
2021/11/30 04:25:03;;;;;;;9.75;8.75;;;6.10;99.90;;;5.37;100.00;101857.09;4150080;28;20048;-73
2021/11/30 04:27:04;;;;;;;12.68;8.00;;;6.10;99.90;;;5.27;100.00;101861.22;4152607;28;20022;-73
2021/11/30 04:29:05;;;;;;;10.68;8.45;;;6.10;99.90;;;5.37;100.00;101854.47;4152522;28;20030;-73
2021/11/30 04:31:06;;;;;;;9.95;8.43;;;6.10;99.90;;;5.35;100.00;101851.09;4148006;28;20053;-73
2021/11/30 04:33:07;;;;;;;10.70;8.40;;;6.10;99.90;;;5.42;100.00;101855.03;4153572;28;20525;-73
2021/11/30 04:35:10;;;;;;;11.95;9.40;;;6.10;99.90;;;5.52;100.00;101865.75;4152410;28;20030;-73
2021/11/30 04:37:11;;;;;;;10.15;8.35;;;6.20;99.90;;;5.59;100.00;101873.13;4136002;28;20038;-73
2021/11/30 04:39:12;;;;;;;10.18;8.68;;;6.20;99.90;;;5.54;100.00;101861.25;4153514;28;20033;-73
2021/11/30 04:41:13;;;;;;;10.57;8.68;;;6.20;99.90;;;5.82;100.00;101862.97;4152261;28;20045;-73
2021/11/30 04:43:14;;;;;;;11.13;8.32;;;6.30;99.90;;;5.69;100.00;101864.69;4153597;28;20489;-73
2021/11/30 04:45:30;;;;;;;9.95;8.07;;;5.90;99.90;;;5.71;100.00;101874.13;4153429;28;20029;-73
2021/11/30 04:47:34;;;;;;;11.30;8.18;;;6.20;99.90;;;5.65;100.00;101865.81;4153368;28;20072;-73
2021/11/30 04:49:54;;;;;;;12.52;8.07;;;6.20;99.90;;;5.70;100.00;101864.59;4152390;28;20417;-74
2021/11/30 04:51:55;;;;;;;9.48;8.05;;;6.20;99.90;;;5.61;100.00;101856.50;4152122;28;20034;-73
2021/11/30 04:53:56;;;;;;;9.35;7.60;;;6.10;99.90;;;5.57;100.00;101856.69;4152090;28;20509;-73
2021/11/30 04:55:58;;;;;;;9.93;7.10;;;6.10;99.90;;;5.72;100.00;101841.78;4153185;28;20129;-73
2021/11/30 04:58:03;;;;;;;10.00;7.30;;;6.10;99.90;;;5.77;100.00;101850.16;4153237;28;20033;-73
2021/11/30 05:00:05;;;;;;;10.07;8.13;;;6.20;99.90;;;5.78;100.00;101843.16;4152081;28;20089;-73
2021/11/30 05:02:06;;;;;;;9.65;8.40;;;6.20;99.90;;;5.83;100.00;101862.03;4153125;28;20033;-73
2021/11/30 05:04:08;;;;;;;9.88;8.02;;;6.20;99.90;;;5.90;100.00;101858.97;4151854;28;20050;-73
2021/11/30 05:06:10;;;;;;;10.20;7.80;;;6.30;99.90;;;5.91;100.00;101852.75;4153184;28;20128;-73
2021/11/30 05:08:11;;;;;;;11.32;7.70;;;6.30;99.90;;;5.80;100.00;101846.50;4151688;28;20025;-73
2021/11/30 05:10:13;;;;;;;8.98;8.07;;;6.30;99.90;;;5.77;100.00;101849.31;4153215;28;20026;-73
2021/11/30 05:12:14;;;;;;;13.38;10.43;;;6.30;99.90;;;5.67;100.00;101851.72;4151647;28;20056;-73
2021/11/30 05:14:15;;;;;;;17.55;13.07;;;6.30;99.90;;;5.75;100.00;101856.44;4142361;28;20104;-73
2021/11/30 05:16:16;;;;;;;18.58;15.57;;;6.30;99.90;;;5.89;100.00;101864.28;4184665;28;20071;-73
2021/11/30 05:18:17;;;;;;;28.45;21.85;;;6.40;99.90;;;5.75;100.00;101856.44;4151792;28;20109;-73
2021/11/30 05:20:18;;;;;;;33.28;23.75;;;6.40;99.90;;;5.69;100.00;101862.91;4167983;28;20029;-73
2021/11/30 05:22:19;;;;;;;36.53;25.40;;;6.30;99.90;;;5.59;100.00;101861.81;4145926;28;20045;-73
2021/11/30 05:24:20;;;;;;;33.22;25.00;;;6.30;99.90;;;5.67;100.00;101866.56;4168005;28;20025;-73
2021/11/30 05:26:21;;;;;;;61.08;42.92;;;6.30;99.90;;;5.62;100.00;101861.63;4147305;28;20092;-73
2021/11/30 05:28:23;;;;;;;19.52;14.65;;;6.30;99.90;;;5.59;100.00;101857.41;4152705;28;20081;-73
2021/11/30 05:30:24;;;;;;;13.93;9.40;;;6.20;99.90;;;5.65;100.00;101861.41;4151826;28;20149;-73
2021/11/30 05:32:25;;;;;;;10.57;8.60;;;6.30;99.90;;;5.77;100.00;101849.31;4151453;28;20022;-73
2021/11/30 05:34:26;;;;;;;10.38;8.30;;;6.30;99.90;;;5.66;100.00;101864.88;4152672;28;20477;-73
2021/11/30 05:36:29;;;;;;;14.68;12.60;;;6.30;99.90;;;5.70;100.00;101853.28;4151380;28;20058;-73
2021/11/30 05:38:31;;;;;;;27.15;22.90;;;6.30;99.90;;;5.75;100.00;101851.22;4152480;28;20053;-73
2021/11/30 05:40:32;;;;;;;25.20;21.45;;;6.40;99.90;;;5.85;100.00;101862.78;4151401;28;20034;-73
2021/11/30 05:42:33;;;;;;;44.13;34.90;;;6.40;99.90;;;5.80;100.00;101862.22;4151303;28;20076;-73
2021/11/30 05:44:34;;;;;;;50.17;37.65;;;6.40;99.90;;;5.73;100.00;101850.47;4151296;28;20030;-74
2021/11/30 05:46:36;;;;;;;52.85;40.72;;;6.40;99.90;;;5.90;100.00;101861.56;4167699;28;20598;-73
2021/11/30 05:48:38;;;;;;;63.42;47.92;;;6.60;99.90;;;5.99;100.00;101852.28;4152511;28;20033;-73
2021/11/30 05:50:39;;;;;;;45.70;34.80;;;6.50;99.90;;;5.95;100.00;101854.25;4151220;28;20034;-73
2021/11/30 05:52:40;;;;;;;27.55;20.10;;;6.60;99.90;;;5.91;100.00;101851.94;4152099;28;20112;-73
2021/11/30 05:54:41;;;;;;;12.15;9.52;;;6.60;99.90;;;5.80;100.00;101864.84;4151244;28;20525;-73
2021/11/30 05:56:42;;;;;;;11.10;8.18;;;6.60;99.90;;;5.95;100.00;101853.41;4134873;28;20047;-73
2021/11/30 05:58:44;;;;;;;9.57;7.75;;;6.60;99.90;;;6.03;100.00;101851.16;4151166;28;20033;-73
2021/11/30 06:00:45;;;;;;;7.88;6.95;;;6.60;99.90;;;6.09;100.00;101856.00;4151093;28;20021;-73
2021/11/30 06:04:57;;;;;;;9.65;7.22;;;6.60;99.90;;;6.10;100.00;101852.41;4151029;28;20045;-73
2021/11/30 06:06:58;;;;;;;7.82;6.53;;;6.70;99.90;;;6.07;100.00;101863.09;4150808;28;20428;-74
2021/11/30 06:09:01;;;;;;;9.82;6.30;;;6.70;99.90;;;6.15;100.00;101860.00;4148055;28;20018;-73
2021/11/30 06:11:02;;;;;;;7.30;6.28;;;6.70;99.90;;;6.03;100.00;101856.41;4150915;28;20036;-73
2021/11/30 06:13:03;;;;;;;8.45;5.82;;;6.70;99.90;;;5.98;100.00;101847.97;4144821;28;20045;-74
2021/11/30 06:15:06;;;;;;;9.18;5.65;;;6.10;99.90;;;6.16;100.00;101852.00;4150991;28;20038;-73
2021/11/30 06:17:09;;;;;;;9.60;6.25;;;6.60;99.90;;;6.08;100.00;101849.91;4167167;28;20031;-73
2021/11/30 06:19:13;;;;;;;10.13;6.45;;;6.70;99.90;;;6.13;100.00;101860.06;4150784;28;20029;-73
2021/11/30 06:21:15;;;;;;;6.07;5.40;;;6.70;99.90;;;6.12;100.00;101856.59;4166823;28;20021;-73
2021/11/30 06:23:16;;;;;;;8.20;6.32;;;6.70;99.90;;;6.14;100.00;101859.16;4134355;28;20038;-74
2021/11/30 06:25:17;;;;;;;9.38;5.95;;;6.70;99.90;;;6.00;100.00;101864.44;4167178;28;20748;-73
2021/11/30 06:27:18;;;;;;;11.60;6.60;;;7.00;99.90;;;6.07;100.00;101874.41;4141525;28;20048;-74
2021/11/30 06:29:19;;;;;;;8.10;6.28;;;6.70;99.90;;;6.15;100.00;101873.94;4150369;28;20032;-73
2021/11/30 06:31:20;;;;;;;8.63;6.03;;;6.70;99.90;;;6.08;100.00;101877.88;4151837;28;20050;-74
2021/11/30 06:33:21;;;;;;;7.47;6.53;;;6.70;99.90;;;6.09;100.00;101885.63;4150446;28;20525;-74
2021/11/30 06:35:22;;;;;;;6.68;5.75;;;6.70;99.90;;;6.17;100.00;101879.91;4151733;28;20088;-73
2021/11/30 06:37:23;;;;;;;10.38;6.18;;;6.80;99.90;;;6.21;100.00;101878.78;4150394;28;20034;-73
2021/11/30 06:39:24;;;;;;;7.45;6.13;;;6.80;99.90;;;6.30;100.00;101880.75;4151726;28;20037;-73
2021/11/30 06:41:25;;;;;;;9.32;7.03;;;6.80;99.90;;;6.17;100.00;101874.66;4151651;28;20477;-73
2021/11/30 06:43:26;;;;;;;10.93;6.55;;;6.90;99.90;;;6.18;100.00;101883.38;4150657;28;20022;-74
2021/11/30 06:45:27;;;;;;;6.85;5.63;;;6.80;99.90;;;6.28;100.00;101893.13;4150471;28;20033;-73
2021/11/30 06:47:30;;;;;;;9.50;6.05;;;6.80;99.90;;;6.27;100.00;101885.38;4150541;28;20456;-74
2021/11/30 06:49:32;;;;;;;7.38;6.68;;;6.90;99.90;;;6.16;100.00;101882.59;4151574;28;20034;-73
2021/11/30 06:51:33;;;;;;;7.20;5.60;;;6.90;99.90;;;6.22;100.00;101879.59;4150792;28;20022;-74
2021/11/30 06:53:35;;;;;;;11.00;6.18;;;6.90;99.90;;;6.22;100.00;101883.06;4167988;28;20049;-74
2021/11/30 06:55:36;;;;;;;7.93;6.50;;;6.90;99.90;;;6.35;100.00;101883.94;4135413;28;20113;-74
2021/11/30 06:57:37;;;;;;;6.30;5.70;;;6.90;99.90;;;6.38;100.00;101875.03;4150221;28;20083;-74
2021/11/30 06:59:38;;;;;;;8.00;6.18;;;7.00;99.90;;;6.30;100.00;101865.03;4152653;28;20030;-74
2021/11/30 07:01:42;;;;;;;6.85;5.30;;;7.00;99.90;;;6.55;100.00;101875.59;4151519;28;20599;-74
2021/11/30 07:03:44;;;;;;;7.75;5.13;;;7.00;99.90;;;6.59;100.00;101869.22;4167221;28;20049;-74
2021/11/30 07:05:46;;;;;;;6.00;5.00;;;7.10;99.90;;;6.59;100.00;101877.06;4152208;28;20038;-74
2021/11/30 07:10:10;;;;;;;6.15;5.32;;;7.00;99.90;;;6.26;100.00;101873.22;4149892;28;20033;-73
2021/11/30 07:12:24;;;;;;;9.23;5.63;;;7.00;99.90;;;6.24;100.00;101870.72;4150464;28;20032;-73
2021/11/30 07:14:27;;;;;;;7.28;5.50;;;6.90;99.90;;;6.32;100.00;101867.56;4150305;28;20570;-73
2021/11/30 07:16:28;;;;;;;6.43;5.30;;;7.00;99.90;;;6.54;100.00;101879.13;4151595;28;20105;-73
2021/11/30 07:18:31;;;;;;;10.57;5.60;;;7.00;99.90;;;6.46;100.00;101864.88;4151447;28;20049;-73
2021/11/30 07:20:32;;;;;;;6.97;5.20;;;7.10;99.90;;;6.46;100.00;101862.25;4150475;28;20037;-73
2021/11/30 07:22:33;;;;;;;5.28;4.78;;;7.00;99.90;;;6.59;100.00;101871.84;4150073;28;20031;-74
2021/11/30 07:24:34;;;;;;;7.07;4.80;;;7.20;99.90;;;6.44;100.00;101857.13;4145193;28;20481;-74
2021/11/30 07:26:35;;;;;;;5.60;5.05;;;7.10;99.90;;;6.63;100.00;101867.22;4151339;28;20133;-74
2021/11/30 07:28:36;;;;;;;10.43;5.20;;;7.20;99.90;;;6.55;100.00;101880.00;4150235;28;20041;-74
2021/11/30 07:30:38;;;;;;;7.68;5.07;;;7.40;99.90;;;6.58;100.00;101878.00;4151276;28;20026;-74
2021/11/30 07:32:39;;;;;;;5.95;4.40;;;7.30;99.90;;;6.74;100.00;101869.97;4150312;28;20033;-73
2021/11/30 07:34:40;;;;;;;8.95;5.30;;;7.30;99.90;;;6.79;100.00;101875.72;4163615;28;20021;-73
2021/11/30 07:36:41;;;;;;;7.45;5.18;;;7.30;99.90;;;6.82;100.00;101877.28;4133796;28;20022;-73
2021/11/30 07:38:44;;;;;;;7.55;5.05;;;7.40;99.90;;;6.86;100.00;101890.09;4144074;28;20117;-74
2021/11/30 07:40:45;;;;;;;9.15;5.05;;;7.40;99.90;;;6.77;100.00;101887.25;4151688;28;20018;-74
2021/11/30 07:42:46;;;;;;;8.88;5.20;;;7.50;99.90;;;6.83;100.00;101894.72;4153024;28;20036;-73
2021/11/30 07:44:47;;;;;;;6.40;4.07;;;7.60;99.90;;;6.76;100.00;101880.31;4153926;28;20026;-74
2021/11/30 07:46:48;;;;;;;9.15;5.00;;;7.60;99.90;;;6.84;100.00;101884.09;4150204;28;20026;-73
2021/11/30 07:48:49;;;;;;;9.55;6.05;;;7.60;99.90;;;6.95;100.00;101886.84;4147090;28;20030;-74
2021/11/30 07:50:51;;;;;;;8.00;5.80;;;7.60;99.90;;;6.93;100.00;101885.28;4152162;28;20038;-73
2021/11/30 07:52:52;;;;;;;6.60;4.72;;;7.70;99.90;;;6.89;100.00;101886.44;4153430;28;20026;-73
2021/11/30 07:54:53;;;;;;;5.90;4.70;;;7.70;99.90;;;6.92;100.00;101888.84;4152646;28;20121;-73
2021/11/30 07:56:54;;;;;;;8.80;4.93;;;7.60;99.90;;;6.97;100.00;101891.97;4152793;28;20049;-74
2021/11/30 07:58:55;;;;;;;7.85;4.70;;;7.70;99.90;;;6.95;100.00;101894.72;4153923;28;20029;-73
2021/11/30 08:00:56;;;;;;;6.35;5.30;;;7.80;99.90;;;7.02;100.00;101897.75;4153084;28;20505;-74
2021/11/30 08:02:57;;;;;;;6.35;5.05;;;7.70;99.90;;;7.10;100.00;101893.69;4168915;28;20072;-74
2021/11/30 08:04:58;;;;;;;5.88;5.07;;;7.80;99.90;;;7.22;100.00;101890.22;4152817;28;20513;-74
2021/11/30 08:06:59;;;;;;;12.57;8.02;;;7.90;99.90;;;7.15;100.00;101899.44;4136295;28;20066;-73
2021/11/30 08:08:59;;;;;;;8.45;6.70;;;7.80;99.90;;;7.08;100.00;101899.94;4140744;28;20026;-74
2021/11/30 08:11:00;;;;;;;18.77;9.13;;;7.90;99.90;;;7.04;100.00;101904.59;4153919;28;20026;-73
2021/11/30 08:13:02;;;;;;;11.20;7.30;;;7.90;99.90;;;7.17;100.00;101904.56;4152812;28;20029;-74
2021/11/30 08:15:05;;;;;;;9.45;6.35;;;7.90;99.90;;;7.05;100.00;101905.41;4169174;28;20048;-73
2021/11/30 08:17:13;;;;;;;16.92;7.13;;;7.90;99.90;;;7.06;100.00;101904.47;4153701;28;20065;-74
2021/11/30 08:19:14;;;;;;;11.60;5.90;;;7.90;99.90;;;7.12;100.00;101906.69;4152782;28;20117;-74
2021/11/30 08:21:14;;;;;;;10.82;5.97;;;8.00;99.90;;;7.28;100.00;101903.84;4152529;28;20026;-73
2021/11/30 08:23:15;;;;;;;10.20;5.90;;;8.00;99.90;;;7.18;100.00;101906.25;4168764;28;20079;-73
2021/11/30 08:25:17;;;;;;;7.40;5.32;;;8.10;99.90;;;7.26;100.00;101903.13;4152411;28;20025;-73
2021/11/30 08:27:19;;;;;;;7.35;6.35;;;8.10;99.90;;;7.26;100.00;101906.56;4142117;28;20036;-73
2021/11/30 08:29:20;;;;;;;10.60;5.50;;;8.10;99.90;;;7.36;100.00;101910.22;4152541;28;20024;-74
2021/11/30 08:31:21;;;;;;;8.63;5.28;;;8.10;99.90;;;7.44;100.00;101913.16;4152261;28;20033;-73
2021/11/30 08:33:22;;;;;;;11.23;6.68;;;8.10;99.90;;;7.31;100.00;101917.59;4152305;28;20026;-74
2021/11/30 08:35:23;;;;;;;8.93;6.10;;;8.20;99.90;;;7.27;100.00;101913.50;4152417;28;20112;-74
2021/11/30 08:37:25;;;;;;;11.02;6.63;;;8.20;99.90;;;7.31;100.00;101904.47;4151942;28;20026;-74
2021/11/30 08:39:26;;;;;;;9.90;5.72;;;8.10;99.90;;;7.39;100.00;101904.78;4152274;28;20048;-74